sensor_id;sensor_type;location;lat;lon;timestamp;temperature;humidity
9760;DHT22;4919;48.792;9.202;2023-03-23T00:00:25;11.60;1.00
9760;DHT22;4919;48.792;9.202;2023-03-23T00:03:10;11.60;1.00
9760;DHT22;4919;48.792;9.202;2023-03-23T00:05:55;11.60;1.00
9760;DHT22;4919;48.792;9.202;2023-03-23T00:08:40;11.50;1.00
9760;DHT22;4919;48.792;9.202;2023-03-23T00:11:30;11.50;1.00
9760;DHT22;4919;48.792;9.202;2023-03-23T00:14:14;11.50;1.00
9760;DHT22;4919;48.792;9.202;2023-03-23T00:16:59;11.50;1.00
9760;DHT22;4919;48.792;9.202;2023-03-23T00:19:44;11.40;1.00
9760;DHT22;4919;48.792;9.202;2023-03-23T00:22:29;11.40;1.00
9760;DHT22;4919;48.792;9.202;2023-03-23T00:25:14;11.30;1.00
9760;DHT22;4919;48.792;9.202;2023-03-23T00:27:59;11.30;1.00
9760;DHT22;4919;48.792;9.202;2023-03-23T00:30:43;11.30;1.00
9760;DHT22;4919;48.792;9.202;2023-03-23T00:33:30;11.30;1.00
9760;DHT22;4919;48.792;9.202;2023-03-23T00:36:15;11.30;1.00
9760;DHT22;4919;48.792;9.202;2023-03-23T00:39:04;11.20;1.00
9760;DHT22;4919;48.792;9.202;2023-03-23T00:41:49;11.30;1.00
9760;DHT22;4919;48.792;9.202;2023-03-23T00:44:33;11.20;1.00
9760;DHT22;4919;48.792;9.202;2023-03-23T00:47:18;11.10;1.00
9760;DHT22;4919;48.792;9.202;2023-03-23T00:50:04;11.20;1.00
9760;DHT22;4919;48.792;9.202;2023-03-23T00:52:49;11.10;1.00
9760;DHT22;4919;48.792;9.202;2023-03-23T00:55:34;11.10;1.00
9760;DHT22;4919;48.792;9.202;2023-03-23T00:58:18;11.10;1.00
9760;DHT22;4919;48.792;9.202;2023-03-23T01:01:04;11.00;1.00
9760;DHT22;4919;48.792;9.202;2023-03-23T01:03:50;10.90;1.00
9760;DHT22;4919;48.792;9.202;2023-03-23T01:06:36;10.90;1.00
9760;DHT22;4919;48.792;9.202;2023-03-23T01:09:21;10.80;1.00
9760;DHT22;4919;48.792;9.202;2023-03-23T01:12:06;10.70;1.00
9760;DHT22;4919;48.792;9.202;2023-03-23T01:14:51;10.80;1.00
9760;DHT22;4919;48.792;9.202;2023-03-23T01:17:36;10.60;1.00
9760;DHT22;4919;48.792;9.202;2023-03-23T01:20:21;10.60;1.00
9760;DHT22;4919;48.792;9.202;2023-03-23T01:23:06;10.50;1.00
9760;DHT22;4919;48.792;9.202;2023-03-23T01:25:51;10.50;1.00
9760;DHT22;4919;48.792;9.202;2023-03-23T01:28:36;10.50;1.00
9760;DHT22;4919;48.792;9.202;2023-03-23T01:31:24;10.40;1.00
9760;DHT22;4919;48.792;9.202;2023-03-23T01:34:10;10.30;1.00
9760;DHT22;4919;48.792;9.202;2023-03-23T01:36:55;10.20;1.00
9760;DHT22;4919;48.792;9.202;2023-03-23T01:39:39;10.20;1.00
9760;DHT22;4919;48.792;9.202;2023-03-23T01:42:29;10.10;1.00
9760;DHT22;4919;48.792;9.202;2023-03-23T01:51:04;10.40;1.00
9760;DHT22;4919;48.792;9.202;2023-03-23T01:56:45;10.40;1.00
9760;DHT22;4919;48.792;9.202;2023-03-23T01:59:32;10.50;1.00
9760;DHT22;4919;48.792;9.202;2023-03-23T02:02:20;10.60;1.00
9760;DHT22;4919;48.792;9.202;2023-03-23T02:05:11;10.60;1.00
9760;DHT22;4919;48.792;9.202;2023-03-23T02:07:58;10.60;1.00
9760;DHT22;4919;48.792;9.202;2023-03-23T02:10:44;10.70;1.00
9760;DHT22;4919;48.792;9.202;2023-03-23T02:13:29;10.70;1.00
9760;DHT22;4919;48.792;9.202;2023-03-23T02:16:21;10.70;1.00
9760;DHT22;4919;48.792;9.202;2023-03-23T02:34:00;10.90;1.00
9760;DHT22;4919;48.792;9.202;2023-03-23T02:39:51;11.00;1.00
9760;DHT22;4919;48.792;9.202;2023-03-23T02:42:39;11.10;1.00
9760;DHT22;4919;48.792;9.202;2023-03-23T02:45:27;11.10;1.00
9760;DHT22;4919;48.792;9.202;2023-03-23T02:48:15;11.20;1.00
9760;DHT22;4919;48.792;9.202;2023-03-23T02:51:02;11.20;1.00
9760;DHT22;4919;48.792;9.202;2023-03-23T02:53:49;11.30;1.00
9760;DHT22;4919;48.792;9.202;2023-03-23T02:56:35;11.30;1.00
9760;DHT22;4919;48.792;9.202;2023-03-23T02:59:21;11.40;1.00
9760;DHT22;4919;48.792;9.202;2023-03-23T03:11:09;11.40;1.00
9760;DHT22;4919;48.792;9.202;2023-03-23T03:14:05;11.40;1.00
9760;DHT22;4919;48.792;9.202;2023-03-23T03:17:05;11.40;1.00
9760;DHT22;4919;48.792;9.202;2023-03-23T03:19:56;11.40;1.00
9760;DHT22;4919;48.792;9.202;2023-03-23T03:22:43;11.40;1.00
9760;DHT22;4919;48.792;9.202;2023-03-23T03:25:28;11.40;1.00
9760;DHT22;4919;48.792;9.202;2023-03-23T03:28:18;11.40;1.00
9760;DHT22;4919;48.792;9.202;2023-03-23T03:31:05;11.30;1.00
9760;DHT22;4919;48.792;9.202;2023-03-23T03:33:51;11.40;1.00
9760;DHT22;4919;48.792;9.202;2023-03-23T03:36:36;11.40;1.00
9760;DHT22;4919;48.792;9.202;2023-03-23T03:39:22;11.40;1.00
9760;DHT22;4919;48.792;9.202;2023-03-23T03:42:07;11.40;1.00
9760;DHT22;4919;48.792;9.202;2023-03-23T03:44:51;11.40;1.00
9760;DHT22;4919;48.792;9.202;2023-03-23T03:47:36;11.50;1.00
9760;DHT22;4919;48.792;9.202;2023-03-23T03:50:21;11.50;1.00
9760;DHT22;4919;48.792;9.202;2023-03-23T03:53:06;11.50;1.00
9760;DHT22;4919;48.792;9.202;2023-03-23T03:55:51;11.50;1.00
9760;DHT22;4919;48.792;9.202;2023-03-23T03:58:36;11.50;1.00
9760;DHT22;4919;48.792;9.202;2023-03-23T04:01:22;11.40;1.00
9760;DHT22;4919;48.792;9.202;2023-03-23T04:04:06;11.50;1.00
9760;DHT22;4919;48.792;9.202;2023-03-23T04:06:51;11.40;1.00
9760;DHT22;4919;48.792;9.202;2023-03-23T04:09:37;11.40;1.00
9760;DHT22;4919;48.792;9.202;2023-03-23T04:12:21;11.30;1.00
9760;DHT22;4919;48.792;9.202;2023-03-23T04:15:07;11.30;1.00
9760;DHT22;4919;48.792;9.202;2023-03-23T04:17:51;11.20;1.00
9760;DHT22;4919;48.792;9.202;2023-03-23T04:20:36;11.20;1.00
9760;DHT22;4919;48.792;9.202;2023-03-23T04:23:21;11.20;1.00
9760;DHT22;4919;48.792;9.202;2023-03-23T04:26:06;11.20;1.00
9760;DHT22;4919;48.792;9.202;2023-03-23T04:28:51;11.20;1.00
9760;DHT22;4919;48.792;9.202;2023-03-23T04:31:36;11.20;1.00
9760;DHT22;4919;48.792;9.202;2023-03-23T04:34:22;11.10;1.00
9760;DHT22;4919;48.792;9.202;2023-03-23T04:37:06;10.90;1.00
9760;DHT22;4919;48.792;9.202;2023-03-23T04:39:52;10.80;3.20
9760;DHT22;4919;48.792;9.202;2023-03-23T04:42:37;10.60;17.60
9760;DHT22;4919;48.792;9.202;2023-03-23T04:45:23;10.60;19.50
9760;DHT22;4919;48.792;9.202;2023-03-23T04:48:08;10.50;21.60
9760;DHT22;4919;48.792;9.202;2023-03-23T04:50:53;10.50;18.70
9760;DHT22;4919;48.792;9.202;2023-03-23T04:53:38;10.70;1.00
9760;DHT22;4919;48.792;9.202;2023-03-23T04:56:22;10.80;1.00
9760;DHT22;4919;48.792;9.202;2023-03-23T04:59:07;10.90;1.00
9760;DHT22;4919;48.792;9.202;2023-03-23T05:01:53;11.00;1.00
9760;DHT22;4919;48.792;9.202;2023-03-23T05:04:38;11.10;1.00
9760;DHT22;4919;48.792;9.202;2023-03-23T05:07:23;11.20;1.00
9760;DHT22;4919;48.792;9.202;2023-03-23T05:10:09;11.10;1.00
9760;DHT22;4919;48.792;9.202;2023-03-23T05:12:55;11.10;1.00
9760;DHT22;4919;48.792;9.202;2023-03-23T05:15:39;11.00;1.00
9760;DHT22;4919;48.792;9.202;2023-03-23T05:18:24;11.00;1.00
9760;DHT22;4919;48.792;9.202;2023-03-23T05:21:09;11.00;1.00
9760;DHT22;4919;48.792;9.202;2023-03-23T05:23:54;11.00;1.00
9760;DHT22;4919;48.792;9.202;2023-03-23T05:26:39;11.00;1.00
9760;DHT22;4919;48.792;9.202;2023-03-23T05:29:24;11.00;1.00
9760;DHT22;4919;48.792;9.202;2023-03-23T05:32:09;11.00;1.00
9760;DHT22;4919;48.792;9.202;2023-03-23T05:35:01;10.90;1.00
9760;DHT22;4919;48.792;9.202;2023-03-23T05:37:46;10.80;9.40
9760;DHT22;4919;48.792;9.202;2023-03-23T05:40:30;10.70;19.40
9760;DHT22;4919;48.792;9.202;2023-03-23T05:43:15;10.70;26.10
9760;DHT22;4919;48.792;9.202;2023-03-23T05:46:00;10.40;91.10
9760;DHT22;4919;48.792;9.202;2023-03-23T05:48:45;10.50;97.20
9760;DHT22;4919;48.792;9.202;2023-03-23T05:51:30;10.30;99.90
9760;DHT22;4919;48.792;9.202;2023-03-23T05:54:16;10.30;99.90
9760;DHT22;4919;48.792;9.202;2023-03-23T05:57:01;10.20;99.90
9760;DHT22;4919;48.792;9.202;2023-03-23T05:59:46;10.30;99.90
9760;DHT22;4919;48.792;9.202;2023-03-23T06:02:31;10.30;99.90
9760;DHT22;4919;48.792;9.202;2023-03-23T06:05:16;10.40;99.90
9760;DHT22;4919;48.792;9.202;2023-03-23T06:08:01;10.40;99.90
9760;DHT22;4919;48.792;9.202;2023-03-23T06:10:46;10.40;99.90
9760;DHT22;4919;48.792;9.202;2023-03-23T06:13:30;10.30;99.90
9760;DHT22;4919;48.792;9.202;2023-03-23T06:16:15;10.30;99.90
9760;DHT22;4919;48.792;9.202;2023-03-23T06:19:00;10.20;99.90
9760;DHT22;4919;48.792;9.202;2023-03-23T06:21:45;10.10;1.00
9760;DHT22;4919;48.792;9.202;2023-03-23T06:24:30;10.10;1.00
9760;DHT22;4919;48.792;9.202;2023-03-23T06:27:15;10.10;1.00
9760;DHT22;4919;48.792;9.202;2023-03-23T06:29:59;10.10;1.00
9760;DHT22;4919;48.792;9.202;2023-03-23T06:32:44;10.00;1.00
9760;DHT22;4919;48.792;9.202;2023-03-23T06:35:29;10.00;1.00
9760;DHT22;4919;48.792;9.202;2023-03-23T06:38:14;10.00;1.00
9760;DHT22;4919;48.792;9.202;2023-03-23T06:40:59;10.00;1.00
9760;DHT22;4919;48.792;9.202;2023-03-23T06:43:44;9.90;1.00
9760;DHT22;4919;48.792;9.202;2023-03-23T06:46:29;10.00;1.00
9760;DHT22;4919;48.792;9.202;2023-03-23T06:49:14;10.00;1.00
9760;DHT22;4919;48.792;9.202;2023-03-23T06:51:58;10.00;1.00
9760;DHT22;4919;48.792;9.202;2023-03-23T06:54:44;10.00;2.60
9760;DHT22;4919;48.792;9.202;2023-03-23T06:57:28;10.00;20.00
9760;DHT22;4919;48.792;9.202;2023-03-23T07:00:13;10.00;36.00
9760;DHT22;4919;48.792;9.202;2023-03-23T07:02:58;10.00;44.70
9760;DHT22;4919;48.792;9.202;2023-03-23T07:05:46;10.00;60.00
9760;DHT22;4919;48.792;9.202;2023-03-23T07:08:31;10.10;91.40
9760;DHT22;4919;48.792;9.202;2023-03-23T07:11:16;10.10;57.20
9760;DHT22;4919;48.792;9.202;2023-03-23T07:14:00;10.20;5.40
9760;DHT22;4919;48.792;9.202;2023-03-23T07:16:45;10.20;14.40
9760;DHT22;4919;48.792;9.202;2023-03-23T07:19:30;10.30;1.00
9760;DHT22;4919;48.792;9.202;2023-03-23T07:22:15;10.20;1.00
9760;DHT22;4919;48.792;9.202;2023-03-23T07:25:00;10.20;1.00
9760;DHT22;4919;48.792;9.202;2023-03-23T07:27:45;10.20;1.00
9760;DHT22;4919;48.792;9.202;2023-03-23T07:30:30;10.20;1.00
9760;DHT22;4919;48.792;9.202;2023-03-23T07:33:15;10.20;25.50
9760;DHT22;4919;48.792;9.202;2023-03-23T07:36:00;10.20;54.80
9760;DHT22;4919;48.792;9.202;2023-03-23T07:38:45;10.20;95.40
9760;DHT22;4919;48.792;9.202;2023-03-23T07:41:30;10.20;99.90
9760;DHT22;4919;48.792;9.202;2023-03-23T07:44:15;10.20;99.90
9760;DHT22;4919;48.792;9.202;2023-03-23T07:46:59;10.30;99.90
9760;DHT22;4919;48.792;9.202;2023-03-23T07:49:44;10.30;99.90
9760;DHT22;4919;48.792;9.202;2023-03-23T07:52:29;10.40;99.90
9760;DHT22;4919;48.792;9.202;2023-03-23T07:55:14;10.40;99.90
9760;DHT22;4919;48.792;9.202;2023-03-23T07:57:59;10.50;99.90
9760;DHT22;4919;48.792;9.202;2023-03-23T08:00:45;10.50;99.90
9760;DHT22;4919;48.792;9.202;2023-03-23T08:03:30;10.50;99.90
9760;DHT22;4919;48.792;9.202;2023-03-23T08:06:14;10.50;99.90
9760;DHT22;4919;48.792;9.202;2023-03-23T08:08:59;10.50;99.90
9760;DHT22;4919;48.792;9.202;2023-03-23T08:11:44;10.50;99.90
9760;DHT22;4919;48.792;9.202;2023-03-23T08:14:29;10.50;99.90
9760;DHT22;4919;48.792;9.202;2023-03-23T08:17:14;10.60;99.90
9760;DHT22;4919;48.792;9.202;2023-03-23T08:19:59;10.70;99.90
9760;DHT22;4919;48.792;9.202;2023-03-23T08:22:50;10.80;99.90
9760;DHT22;4919;48.792;9.202;2023-03-23T08:25:36;10.80;99.90
9760;DHT22;4919;48.792;9.202;2023-03-23T08:28:21;10.90;99.90
9760;DHT22;4919;48.792;9.202;2023-03-23T08:31:08;11.00;74.50
9760;DHT22;4919;48.792;9.202;2023-03-23T08:33:53;11.00;25.60
9760;DHT22;4919;48.792;9.202;2023-03-23T08:36:38;10.90;17.00
9760;DHT22;4919;48.792;9.202;2023-03-23T08:39:23;11.00;1.00
9760;DHT22;4919;48.792;9.202;2023-03-23T08:42:07;11.00;6.80
9760;DHT22;4919;48.792;9.202;2023-03-23T08:44:52;11.00;1.00
9760;DHT22;4919;48.792;9.202;2023-03-23T08:47:38;11.10;1.00
9760;DHT22;4919;48.792;9.202;2023-03-23T08:50:25;11.10;1.00
9760;DHT22;4919;48.792;9.202;2023-03-23T08:53:11;11.10;1.00
9760;DHT22;4919;48.792;9.202;2023-03-23T08:55:55;11.20;1.00
9760;DHT22;4919;48.792;9.202;2023-03-23T08:58:40;11.20;1.00
9760;DHT22;4919;48.792;9.202;2023-03-23T09:01:25;11.30;1.00
9760;DHT22;4919;48.792;9.202;2023-03-23T09:04:10;11.30;1.00
9760;DHT22;4919;48.792;9.202;2023-03-23T09:06:55;11.40;1.00
9760;DHT22;4919;48.792;9.202;2023-03-23T09:09:40;11.50;1.00
9760;DHT22;4919;48.792;9.202;2023-03-23T09:12:25;11.60;1.00
9760;DHT22;4919;48.792;9.202;2023-03-23T09:15:12;11.80;1.00
9760;DHT22;4919;48.792;9.202;2023-03-23T09:17:57;11.90;1.00
9760;DHT22;4919;48.792;9.202;2023-03-23T09:20:41;11.90;1.00
9760;DHT22;4919;48.792;9.202;2023-03-23T09:23:27;11.90;1.00
9760;DHT22;4919;48.792;9.202;2023-03-23T09:26:11;12.00;1.00
9760;DHT22;4919;48.792;9.202;2023-03-23T09:28:56;12.10;1.00
9760;DHT22;4919;48.792;9.202;2023-03-23T09:31:41;12.10;1.00
9760;DHT22;4919;48.792;9.202;2023-03-23T09:34:26;12.10;1.00
9760;DHT22;4919;48.792;9.202;2023-03-23T09:37:11;12.10;1.00
9760;DHT22;4919;48.792;9.202;2023-03-23T09:39:56;12.20;1.00
9760;DHT22;4919;48.792;9.202;2023-03-23T09:49:13;12.60;99.90
9760;DHT22;4919;48.792;9.202;2023-03-23T09:52:08;12.70;99.90
9760;DHT22;4919;48.792;9.202;2023-03-23T09:54:55;12.90;99.90
9760;DHT22;4919;48.792;9.202;2023-03-23T09:58:03;13.10;99.90
9760;DHT22;4919;48.792;9.202;2023-03-23T10:01:13;13.30;99.90
9760;DHT22;4919;48.792;9.202;2023-03-23T10:04:07;13.30;99.90
9760;DHT22;4919;48.792;9.202;2023-03-23T10:07:13;13.40;99.90
9760;DHT22;4919;48.792;9.202;2023-03-23T10:10:01;13.30;99.90
9760;DHT22;4919;48.792;9.202;2023-03-23T10:12:54;13.30;99.90
9760;DHT22;4919;48.792;9.202;2023-03-23T10:15:40;13.30;99.90
9760;DHT22;4919;48.792;9.202;2023-03-23T10:18:47;13.30;99.90
9760;DHT22;4919;48.792;9.202;2023-03-23T10:21:35;13.30;99.90
9760;DHT22;4919;48.792;9.202;2023-03-23T10:24:35;13.40;99.90
9760;DHT22;4919;48.792;9.202;2023-03-23T10:27:26;13.40;99.90
9760;DHT22;4919;48.792;9.202;2023-03-23T10:33:29;13.50;99.90
9760;DHT22;4919;48.792;9.202;2023-03-23T10:36:48;13.60;99.90
9760;DHT22;4919;48.792;9.202;2023-03-23T10:39:28;13.70;99.90
9760;DHT22;4919;48.792;9.202;2023-03-23T10:42:25;13.80;99.90
9760;DHT22;4919;48.792;9.202;2023-03-23T10:51:00;13.80;94.60
9760;DHT22;4919;48.792;9.202;2023-03-23T10:53:51;13.70;99.60
9760;DHT22;4919;48.792;9.202;2023-03-23T10:56:40;13.70;94.70
9760;DHT22;4919;48.792;9.202;2023-03-23T10:59:28;13.60;88.60
9760;DHT22;4919;48.792;9.202;2023-03-23T11:02:24;13.70;99.90
9760;DHT22;4919;48.792;9.202;2023-03-23T11:05:23;13.70;84.80
9760;DHT22;4919;48.792;9.202;2023-03-23T11:08:15;13.80;57.90
9760;DHT22;4919;48.792;9.202;2023-03-23T11:11:28;13.90;54.20
9760;DHT22;4919;48.792;9.202;2023-03-23T11:14:19;13.90;57.90
9760;DHT22;4919;48.792;9.202;2023-03-23T11:17:19;14.00;39.00
9760;DHT22;4919;48.792;9.202;2023-03-23T11:20:11;14.00;53.80
9760;DHT22;4919;48.792;9.202;2023-03-23T11:22:56;14.00;24.00
9760;DHT22;4919;48.792;9.202;2023-03-23T11:29:15;14.10;18.60
9760;DHT22;4919;48.792;9.202;2023-03-23T11:34:48;14.20;43.30
9760;DHT22;4919;48.792;9.202;2023-03-23T11:37:40;14.20;16.20
9760;DHT22;4919;48.792;9.202;2023-03-23T11:40:29;14.30;1.00
9760;DHT22;4919;48.792;9.202;2023-03-23T11:43:19;14.40;4.50
9760;DHT22;4919;48.792;9.202;2023-03-23T11:49:45;14.60;1.00
9760;DHT22;4919;48.792;9.202;2023-03-23T11:58:30;14.90;1.00
9760;DHT22;4919;48.792;9.202;2023-03-23T12:07:37;15.10;1.00
9760;DHT22;4919;48.792;9.202;2023-03-23T12:13:56;15.00;1.00
9760;DHT22;4919;48.792;9.202;2023-03-23T12:26:19;15.20;1.00
9760;DHT22;4919;48.792;9.202;2023-03-23T12:32:39;15.30;1.00
9760;DHT22;4919;48.792;9.202;2023-03-23T12:35:34;15.30;1.00
9760;DHT22;4919;48.792;9.202;2023-03-23T12:41:29;15.20;1.00
9760;DHT22;4919;48.792;9.202;2023-03-23T12:44:21;15.30;1.00
9760;DHT22;4919;48.792;9.202;2023-03-23T12:56:21;15.50;1.00
9760;DHT22;4919;48.792;9.202;2023-03-23T13:02:01;15.40;1.00
9760;DHT22;4919;48.792;9.202;2023-03-23T13:04:55;15.50;1.00
9760;DHT22;4919;48.792;9.202;2023-03-23T13:07:47;15.60;1.00
9760;DHT22;4919;48.792;9.202;2023-03-23T13:10:39;15.70;1.00
9760;DHT22;4919;48.792;9.202;2023-03-23T13:19:26;16.60;1.00
9760;DHT22;4919;48.792;9.202;2023-03-23T13:25:36;16.40;1.00
9760;DHT22;4919;48.792;9.202;2023-03-23T13:28:26;16.40;1.00
9760;DHT22;4919;48.792;9.202;2023-03-23T13:31:12;16.30;1.00
9760;DHT22;4919;48.792;9.202;2023-03-23T13:34:00;16.40;1.00
9760;DHT22;4919;48.792;9.202;2023-03-23T13:42:34;16.10;1.00
9760;DHT22;4919;48.792;9.202;2023-03-23T13:45:46;16.10;1.00
9760;DHT22;4919;48.792;9.202;2023-03-23T13:48:49;16.00;1.00
9760;DHT22;4919;48.792;9.202;2023-03-23T13:51:46;16.40;1.00
9760;DHT22;4919;48.792;9.202;2023-03-23T13:54:43;16.10;1.00
9760;DHT22;4919;48.792;9.202;2023-03-23T13:57:38;16.30;1.00
9760;DHT22;4919;48.792;9.202;2023-03-23T14:00:34;16.20;1.00
9760;DHT22;4919;48.792;9.202;2023-03-23T14:03:35;16.00;1.00
9760;DHT22;4919;48.792;9.202;2023-03-23T14:06:22;16.00;1.00
9760;DHT22;4919;48.792;9.202;2023-03-23T14:12:04;16.40;1.00
9760;DHT22;4919;48.792;9.202;2023-03-23T14:14:51;16.40;1.00
9760;DHT22;4919;48.792;9.202;2023-03-23T14:17:44;16.50;1.00
9760;DHT22;4919;48.792;9.202;2023-03-23T14:20:34;16.50;1.00
9760;DHT22;4919;48.792;9.202;2023-03-23T14:23:19;16.60;1.00
9760;DHT22;4919;48.792;9.202;2023-03-23T14:26:10;16.30;1.00
9760;DHT22;4919;48.792;9.202;2023-03-23T14:28:56;16.10;1.00
9760;DHT22;4919;48.792;9.202;2023-03-23T14:31:41;15.90;1.00
9760;DHT22;4919;48.792;9.202;2023-03-23T14:34:28;15.90;1.00
9760;DHT22;4919;48.792;9.202;2023-03-23T14:37:15;15.70;1.00
9760;DHT22;4919;48.792;9.202;2023-03-23T14:40:00;15.70;1.00
9760;DHT22;4919;48.792;9.202;2023-03-23T14:42:45;15.60;1.00
9760;DHT22;4919;48.792;9.202;2023-03-23T14:45:32;15.50;1.00
9760;DHT22;4919;48.792;9.202;2023-03-23T14:48:17;15.50;1.00
9760;DHT22;4919;48.792;9.202;2023-03-23T14:51:03;15.50;1.00
9760;DHT22;4919;48.792;9.202;2023-03-23T14:53:49;15.40;1.00
9760;DHT22;4919;48.792;9.202;2023-03-23T14:56:36;15.40;1.00
9760;DHT22;4919;48.792;9.202;2023-03-23T14:59:21;15.40;1.00
9760;DHT22;4919;48.792;9.202;2023-03-23T15:02:14;15.30;1.00
9760;DHT22;4919;48.792;9.202;2023-03-23T15:05:12;15.40;1.00
9760;DHT22;4919;48.792;9.202;2023-03-23T15:08:05;15.50;1.00
9760;DHT22;4919;48.792;9.202;2023-03-23T15:10:58;15.50;1.00
9760;DHT22;4919;48.792;9.202;2023-03-23T15:13:54;15.50;1.00
9760;DHT22;4919;48.792;9.202;2023-03-23T15:16:40;15.60;1.00
9760;DHT22;4919;48.792;9.202;2023-03-23T15:19:39;15.50;1.00
9760;DHT22;4919;48.792;9.202;2023-03-23T15:28:31;15.50;1.00
9760;DHT22;4919;48.792;9.202;2023-03-23T15:31:16;15.40;1.00
9760;DHT22;4919;48.792;9.202;2023-03-23T15:34:04;15.60;1.00
9760;DHT22;4919;48.792;9.202;2023-03-23T15:36:56;15.90;1.00
9760;DHT22;4919;48.792;9.202;2023-03-23T15:39:41;16.10;1.00
9760;DHT22;4919;48.792;9.202;2023-03-23T15:42:34;16.10;1.00
9760;DHT22;4919;48.792;9.202;2023-03-23T15:45:27;16.00;1.00
9760;DHT22;4919;48.792;9.202;2023-03-23T15:48:12;16.00;1.00
9760;DHT22;4919;48.792;9.202;2023-03-23T15:50:58;15.80;1.00
9760;DHT22;4919;48.792;9.202;2023-03-23T15:53:43;16.00;1.00
9760;DHT22;4919;48.792;9.202;2023-03-23T15:56:28;15.90;1.00
9760;DHT22;4919;48.792;9.202;2023-03-23T15:59:13;15.70;1.00
9760;DHT22;4919;48.792;9.202;2023-03-23T16:01:58;15.70;1.00
9760;DHT22;4919;48.792;9.202;2023-03-23T16:04:43;15.60;1.00
9760;DHT22;4919;48.792;9.202;2023-03-23T16:07:28;15.50;1.00
9760;DHT22;4919;48.792;9.202;2023-03-23T16:10:23;15.50;1.00
9760;DHT22;4919;48.792;9.202;2023-03-23T16:13:09;15.40;1.00
9760;DHT22;4919;48.792;9.202;2023-03-23T16:15:53;15.30;1.00
9760;DHT22;4919;48.792;9.202;2023-03-23T16:18:38;15.40;1.00
9760;DHT22;4919;48.792;9.202;2023-03-23T16:21:23;15.40;1.00
9760;DHT22;4919;48.792;9.202;2023-03-23T16:24:09;15.50;1.00
9760;DHT22;4919;48.792;9.202;2023-03-23T16:26:54;15.50;1.00
9760;DHT22;4919;48.792;9.202;2023-03-23T16:29:38;15.50;1.00
9760;DHT22;4919;48.792;9.202;2023-03-23T16:32:24;15.40;1.00
9760;DHT22;4919;48.792;9.202;2023-03-23T16:35:09;15.30;1.00
9760;DHT22;4919;48.792;9.202;2023-03-23T16:37:55;15.40;1.00
9760;DHT22;4919;48.792;9.202;2023-03-23T16:40:40;15.20;1.00
9760;DHT22;4919;48.792;9.202;2023-03-23T16:43:25;15.10;1.00
9760;DHT22;4919;48.792;9.202;2023-03-23T16:46:11;15.10;1.00
9760;DHT22;4919;48.792;9.202;2023-03-23T16:48:56;15.10;1.00
9760;DHT22;4919;48.792;9.202;2023-03-23T16:51:41;15.00;1.00
9760;DHT22;4919;48.792;9.202;2023-03-23T16:54:26;14.80;1.00
9760;DHT22;4919;48.792;9.202;2023-03-23T16:57:11;14.80;1.00
9760;DHT22;4919;48.792;9.202;2023-03-23T16:59:56;14.80;1.00
9760;DHT22;4919;48.792;9.202;2023-03-23T17:02:41;14.70;1.00
9760;DHT22;4919;48.792;9.202;2023-03-23T17:05:27;14.70;1.00
9760;DHT22;4919;48.792;9.202;2023-03-23T17:08:12;14.60;1.00
9760;DHT22;4919;48.792;9.202;2023-03-23T17:10:57;14.50;1.00
9760;DHT22;4919;48.792;9.202;2023-03-23T17:13:42;14.50;1.00
9760;DHT22;4919;48.792;9.202;2023-03-23T17:16:27;14.50;1.00
9760;DHT22;4919;48.792;9.202;2023-03-23T17:19:12;14.40;1.00
9760;DHT22;4919;48.792;9.202;2023-03-23T17:21:57;14.30;1.00
9760;DHT22;4919;48.792;9.202;2023-03-23T17:24:42;14.30;1.00
9760;DHT22;4919;48.792;9.202;2023-03-23T17:27:27;14.30;1.00
9760;DHT22;4919;48.792;9.202;2023-03-23T17:30:12;14.30;1.00
9760;DHT22;4919;48.792;9.202;2023-03-23T17:32:57;14.30;1.00
9760;DHT22;4919;48.792;9.202;2023-03-23T17:35:44;14.20;1.00
9760;DHT22;4919;48.792;9.202;2023-03-23T17:38:29;14.10;1.00
9760;DHT22;4919;48.792;9.202;2023-03-23T17:41:14;14.10;1.00
9760;DHT22;4919;48.792;9.202;2023-03-23T17:43:59;14.10;1.00
9760;DHT22;4919;48.792;9.202;2023-03-23T17:46:44;14.00;1.00
9760;DHT22;4919;48.792;9.202;2023-03-23T17:49:29;14.00;1.00
9760;DHT22;4919;48.792;9.202;2023-03-23T17:52:14;14.00;1.00
9760;DHT22;4919;48.792;9.202;2023-03-23T17:54:59;13.70;1.00
9760;DHT22;4919;48.792;9.202;2023-03-23T17:57:44;13.30;1.00
9760;DHT22;4919;48.792;9.202;2023-03-23T18:00:29;13.10;1.00
9760;DHT22;4919;48.792;9.202;2023-03-23T18:03:13;12.90;1.00
9760;DHT22;4919;48.792;9.202;2023-03-23T18:06:04;12.70;1.00
9760;DHT22;4919;48.792;9.202;2023-03-23T18:08:49;12.70;1.00
9760;DHT22;4919;48.792;9.202;2023-03-23T18:11:34;12.70;1.00
9760;DHT22;4919;48.792;9.202;2023-03-23T18:14:19;12.70;1.00
9760;DHT22;4919;48.792;9.202;2023-03-23T18:17:04;12.60;1.00
9760;DHT22;4919;48.792;9.202;2023-03-23T18:19:49;12.60;1.00
9760;DHT22;4919;48.792;9.202;2023-03-23T18:22:34;12.50;1.00
9760;DHT22;4919;48.792;9.202;2023-03-23T18:25:19;12.50;4.00
9760;DHT22;4919;48.792;9.202;2023-03-23T18:28:04;12.40;1.00
9760;DHT22;4919;48.792;9.202;2023-03-23T18:30:49;12.40;5.10
9760;DHT22;4919;48.792;9.202;2023-03-23T18:33:35;12.30;5.80
9760;DHT22;4919;48.792;9.202;2023-03-23T18:36:22;12.30;8.90
9760;DHT22;4919;48.792;9.202;2023-03-23T18:39:07;12.20;14.50
9760;DHT22;4919;48.792;9.202;2023-03-23T18:41:52;12.20;23.80
9760;DHT22;4919;48.792;9.202;2023-03-23T18:44:37;12.10;36.90
9760;DHT22;4919;48.792;9.202;2023-03-23T18:47:21;12.10;49.70
9760;DHT22;4919;48.792;9.202;2023-03-23T18:50:08;12.00;84.10
9760;DHT22;4919;48.792;9.202;2023-03-23T18:52:53;11.90;99.90
9760;DHT22;4919;48.792;9.202;2023-03-23T18:55:38;11.80;99.90
9760;DHT22;4919;48.792;9.202;2023-03-23T18:58:23;11.80;99.90
9760;DHT22;4919;48.792;9.202;2023-03-23T19:01:11;11.70;99.90
9760;DHT22;4919;48.792;9.202;2023-03-23T19:03:56;11.70;99.90
9760;DHT22;4919;48.792;9.202;2023-03-23T19:06:41;11.70;99.90
9760;DHT22;4919;48.792;9.202;2023-03-23T19:09:27;11.70;99.90
9760;DHT22;4919;48.792;9.202;2023-03-23T19:12:12;11.60;99.90
9760;DHT22;4919;48.792;9.202;2023-03-23T19:14:57;11.70;99.90
9760;DHT22;4919;48.792;9.202;2023-03-23T19:17:43;11.60;99.90
9760;DHT22;4919;48.792;9.202;2023-03-23T19:20:28;11.60;99.90
9760;DHT22;4919;48.792;9.202;2023-03-23T19:23:13;11.60;99.90
9760;DHT22;4919;48.792;9.202;2023-03-23T19:25:58;11.60;99.90
9760;DHT22;4919;48.792;9.202;2023-03-23T19:28:43;11.60;99.90
9760;DHT22;4919;48.792;9.202;2023-03-23T19:31:28;11.60;99.90
9760;DHT22;4919;48.792;9.202;2023-03-23T19:34:13;11.60;99.90
9760;DHT22;4919;48.792;9.202;2023-03-23T19:36:59;11.50;99.90
9760;DHT22;4919;48.792;9.202;2023-03-23T19:39:43;11.50;99.90
9760;DHT22;4919;48.792;9.202;2023-03-23T19:42:28;11.50;99.90
9760;DHT22;4919;48.792;9.202;2023-03-23T19:45:13;11.40;99.90
9760;DHT22;4919;48.792;9.202;2023-03-23T19:47:58;11.40;99.90
9760;DHT22;4919;48.792;9.202;2023-03-23T19:50:44;11.50;99.90
9760;DHT22;4919;48.792;9.202;2023-03-23T19:53:29;11.50;99.90
9760;DHT22;4919;48.792;9.202;2023-03-23T19:56:17;11.40;99.90
9760;DHT22;4919;48.792;9.202;2023-03-23T19:59:02;11.40;99.90
9760;DHT22;4919;48.792;9.202;2023-03-23T20:01:47;11.40;99.90
9760;DHT22;4919;48.792;9.202;2023-03-23T20:04:32;11.50;99.90
9760;DHT22;4919;48.792;9.202;2023-03-23T20:07:18;11.50;99.90
9760;DHT22;4919;48.792;9.202;2023-03-23T20:10:03;11.50;99.90
9760;DHT22;4919;48.792;9.202;2023-03-23T20:12:48;11.50;99.90
9760;DHT22;4919;48.792;9.202;2023-03-23T20:15:33;11.50;99.90
9760;DHT22;4919;48.792;9.202;2023-03-23T20:18:17;11.50;99.90
9760;DHT22;4919;48.792;9.202;2023-03-23T20:21:10;11.50;99.90
9760;DHT22;4919;48.792;9.202;2023-03-23T20:23:57;11.50;99.90
9760;DHT22;4919;48.792;9.202;2023-03-23T20:26:42;11.40;99.90
9760;DHT22;4919;48.792;9.202;2023-03-23T20:29:27;11.40;99.90